sensor_id;sensor_type;location;lat;lon;timestamp;P1;durP1;ratioP1;P2;durP2;ratioP2
80536;SDS011;69867;47.074;15.404;2024-03-23T00:54:16;8.23;;;3.78;;
80536;SDS011;69867;47.074;15.404;2024-03-23T00:56:41;6.25;;;3.72;;
80536;SDS011;69867;47.074;15.404;2024-03-23T00:59:06;8.85;;;3.33;;
80536;SDS011;69867;47.074;15.404;2024-03-23T01:01:32;6.65;;;3.05;;
80536;SDS011;69867;47.074;15.404;2024-03-23T01:03:57;5.38;;;3.00;;
80536;SDS011;69867;47.074;15.404;2024-03-23T01:06:23;5.70;;;3.20;;
80536;SDS011;69867;47.074;15.404;2024-03-23T01:08:48;6.88;;;3.03;;
80536;SDS011;69867;47.074;15.404;2024-03-23T01:11:14;5.65;;;2.92;;
80536;SDS011;69867;47.074;15.404;2024-03-23T01:13:39;6.50;;;2.85;;
80536;SDS011;69867;47.074;15.404;2024-03-23T01:16:04;6.20;;;3.22;;
80536;SDS011;69867;47.074;15.404;2024-03-23T01:18:30;6.40;;;2.75;;
80536;SDS011;69867;47.074;15.404;2024-03-23T01:20:55;8.07;;;2.83;;
80536;SDS011;69867;47.074;15.404;2024-03-23T01:23:21;8.15;;;3.10;;
80536;SDS011;69867;47.074;15.404;2024-03-23T01:25:52;7.13;;;3.08;;
80536;SDS011;69867;47.074;15.404;2024-03-23T01:28:18;5.80;;;2.65;;
80536;SDS011;69867;47.074;15.404;2024-03-23T01:30:43;6.88;;;2.80;;
80536;SDS011;69867;47.074;15.404;2024-03-23T01:33:09;5.70;;;2.70;;
80536;SDS011;69867;47.074;15.404;2024-03-23T01:35:34;3.97;;;2.03;;
80536;SDS011;69867;47.074;15.404;2024-03-23T01:37:59;6.55;;;2.58;;
80536;SDS011;69867;47.074;15.404;2024-03-23T01:40:25;5.18;;;2.13;;
80536;SDS011;69867;47.074;15.404;2024-03-23T01:42:57;5.55;;;2.72;;
80536;SDS011;69867;47.074;15.404;2024-03-23T01:45:30;6.05;;;2.47;;
80536;SDS011;69867;47.074;15.404;2024-03-23T01:47:56;6.78;;;2.75;;
80536;SDS011;69867;47.074;15.404;2024-03-23T01:50:22;3.42;;;2.25;;
80536;SDS011;69867;47.074;15.404;2024-03-23T01:52:48;5.68;;;2.80;;
80536;SDS011;69867;47.074;15.404;2024-03-23T01:55:13;4.07;;;2.25;;
80536;SDS011;69867;47.074;15.404;2024-03-23T01:57:39;4.95;;;2.33;;
80536;SDS011;69867;47.074;15.404;2024-03-23T02:00:04;7.85;;;2.30;;
80536;SDS011;69867;47.074;15.404;2024-03-23T02:02:30;4.60;;;2.33;;
80536;SDS011;69867;47.074;15.404;2024-03-23T02:04:56;4.68;;;2.10;;
80536;SDS011;69867;47.074;15.404;2024-03-23T02:07:21;7.57;;;4.00;;
80536;SDS011;69867;47.074;15.404;2024-03-23T02:09:46;5.45;;;2.45;;
80536;SDS011;69867;47.074;15.404;2024-03-23T02:12:12;5.15;;;2.33;;
80536;SDS011;69867;47.074;15.404;2024-03-23T02:14:37;5.68;;;2.58;;
80536;SDS011;69867;47.074;15.404;2024-03-23T02:17:02;6.03;;;2.97;;
80536;SDS011;69867;47.074;15.404;2024-03-23T02:19:28;4.35;;;2.60;;
80536;SDS011;69867;47.074;15.404;2024-03-23T02:21:53;4.93;;;2.40;;
80536;SDS011;69867;47.074;15.404;2024-03-23T02:24:19;3.70;;;2.13;;
80536;SDS011;69867;47.074;15.404;2024-03-23T02:26:44;5.20;;;2.00;;
80536;SDS011;69867;47.074;15.404;2024-03-23T02:29:09;5.65;;;1.83;;
80536;SDS011;69867;47.074;15.404;2024-03-23T02:31:35;5.20;;;2.20;;
80536;SDS011;69867;47.074;15.404;2024-03-23T02:34:01;3.47;;;1.65;;
80536;SDS011;69867;47.074;15.404;2024-03-23T02:36:26;4.47;;;2.20;;
80536;SDS011;69867;47.074;15.404;2024-03-23T02:38:52;3.95;;;1.85;;
80536;SDS011;69867;47.074;15.404;2024-03-23T02:41:17;6.78;;;2.45;;
80536;SDS011;69867;47.074;15.404;2024-03-23T02:43:42;5.05;;;2.00;;
80536;SDS011;69867;47.074;15.404;2024-03-23T02:46:08;3.88;;;1.77;;
80536;SDS011;69867;47.074;15.404;2024-03-23T02:48:33;3.80;;;1.83;;
80536;SDS011;69867;47.074;15.404;2024-03-23T02:50:58;4.07;;;1.70;;
80536;SDS011;69867;47.074;15.404;2024-03-23T02:53:24;4.32;;;1.92;;
80536;SDS011;69867;47.074;15.404;2024-03-23T02:55:49;3.83;;;1.70;;
80536;SDS011;69867;47.074;15.404;2024-03-23T02:58:14;5.95;;;2.33;;
80536;SDS011;69867;47.074;15.404;2024-03-23T03:00:40;4.55;;;2.28;;
80536;SDS011;69867;47.074;15.404;2024-03-23T03:03:05;5.10;;;2.30;;
80536;SDS011;69867;47.074;15.404;2024-03-23T03:05:31;4.85;;;2.60;;
80536;SDS011;69867;47.074;15.404;2024-03-23T03:07:56;5.45;;;2.40;;
80536;SDS011;69867;47.074;15.404;2024-03-23T03:10:21;5.32;;;2.30;;
80536;SDS011;69867;47.074;15.404;2024-03-23T03:12:47;4.50;;;2.00;;
80536;SDS011;69867;47.074;15.404;2024-03-23T03:15:12;4.35;;;2.30;;
80536;SDS011;69867;47.074;15.404;2024-03-23T03:17:38;3.88;;;2.13;;
80536;SDS011;69867;47.074;15.404;2024-03-23T03:20:03;3.65;;;2.03;;
80536;SDS011;69867;47.074;15.404;2024-03-23T03:22:29;4.45;;;1.75;;
80536;SDS011;69867;47.074;15.404;2024-03-23T03:24:54;5.38;;;2.50;;
80536;SDS011;69867;47.074;15.404;2024-03-23T03:27:19;4.88;;;2.35;;
80536;SDS011;69867;47.074;15.404;2024-03-23T03:29:45;4.32;;;1.90;;
80536;SDS011;69867;47.074;15.404;2024-03-23T03:32:10;6.55;;;2.42;;
80536;SDS011;69867;47.074;15.404;2024-03-23T03:34:35;3.97;;;2.22;;
80536;SDS011;69867;47.074;15.404;2024-03-23T03:37:01;4.45;;;1.88;;
80536;SDS011;69867;47.074;15.404;2024-03-23T03:39:26;3.88;;;2.20;;
80536;SDS011;69867;47.074;15.404;2024-03-23T03:41:52;4.28;;;1.95;;
80536;SDS011;69867;47.074;15.404;2024-03-23T03:44:17;4.47;;;2.17;;
80536;SDS011;69867;47.074;15.404;2024-03-23T03:46:42;4.40;;;2.25;;
80536;SDS011;69867;47.074;15.404;2024-03-23T03:49:08;5.53;;;2.33;;
80536;SDS011;69867;47.074;15.404;2024-03-23T03:51:34;6.40;;;2.47;;
80536;SDS011;69867;47.074;15.404;2024-03-23T03:53:59;5.35;;;2.25;;
80536;SDS011;69867;47.074;15.404;2024-03-23T03:56:25;4.65;;;2.10;;
80536;SDS011;69867;47.074;15.404;2024-03-23T03:58:50;5.63;;;1.90;;
80536;SDS011;69867;47.074;15.404;2024-03-23T04:01:15;4.55;;;2.03;;
80536;SDS011;69867;47.074;15.404;2024-03-23T04:03:42;3.75;;;2.25;;
80536;SDS011;69867;47.074;15.404;2024-03-23T04:06:08;6.65;;;2.20;;
80536;SDS011;69867;47.074;15.404;2024-03-23T04:08:33;5.13;;;1.90;;
80536;SDS011;69867;47.074;15.404;2024-03-23T04:10:58;4.20;;;2.17;;
80536;SDS011;69867;47.074;15.404;2024-03-23T04:13:24;4.35;;;1.90;;
80536;SDS011;69867;47.074;15.404;2024-03-23T04:15:53;4.57;;;2.20;;
80536;SDS011;69867;47.074;15.404;2024-03-23T04:18:19;4.40;;;2.08;;
80536;SDS011;69867;47.074;15.404;2024-03-23T04:20:44;5.50;;;2.13;;
80536;SDS011;69867;47.074;15.404;2024-03-23T04:23:09;5.88;;;2.72;;
80536;SDS011;69867;47.074;15.404;2024-03-23T04:25:35;4.95;;;2.30;;
80536;SDS011;69867;47.074;15.404;2024-03-23T04:28:00;5.57;;;2.10;;
80536;SDS011;69867;47.074;15.404;2024-03-23T04:30:26;5.15;;;2.05;;
80536;SDS011;69867;47.074;15.404;2024-03-23T04:32:51;5.65;;;2.38;;
80536;SDS011;69867;47.074;15.404;2024-03-23T04:35:16;5.82;;;2.45;;
80536;SDS011;69867;47.074;15.404;2024-03-23T04:37:42;5.45;;;2.33;;
80536;SDS011;69867;47.074;15.404;2024-03-23T04:40:07;6.60;;;2.63;;
80536;SDS011;69867;47.074;15.404;2024-03-23T04:42:33;5.60;;;2.75;;
80536;SDS011;69867;47.074;15.404;2024-03-23T04:44:59;5.70;;;2.40;;
80536;SDS011;69867;47.074;15.404;2024-03-23T04:47:24;5.88;;;2.78;;
80536;SDS011;69867;47.074;15.404;2024-03-23T04:49:50;7.28;;;1.95;;
80536;SDS011;69867;47.074;15.404;2024-03-23T04:52:16;5.13;;;2.20;;
80536;SDS011;69867;47.074;15.404;2024-03-23T04:54:41;4.38;;;1.92;;
80536;SDS011;69867;47.074;15.404;2024-03-23T04:57:07;4.28;;;2.13;;
80536;SDS011;69867;47.074;15.404;2024-03-23T04:59:32;4.82;;;2.05;;
80536;SDS011;69867;47.074;15.404;2024-03-23T05:01:57;4.75;;;2.20;;
80536;SDS011;69867;47.074;15.404;2024-03-23T05:04:23;4.82;;;2.30;;
80536;SDS011;69867;47.074;15.404;2024-03-23T05:06:48;5.88;;;2.60;;
80536;SDS011;69867;47.074;15.404;2024-03-23T05:09:13;4.53;;;2.33;;
80536;SDS011;69867;47.074;15.404;2024-03-23T05:11:39;5.05;;;2.55;;
80536;SDS011;69867;47.074;15.404;2024-03-23T05:14:04;4.22;;;2.03;;
80536;SDS011;69867;47.074;15.404;2024-03-23T05:16:30;4.95;;;2.38;;
80536;SDS011;69867;47.074;15.404;2024-03-23T05:18:55;4.18;;;2.00;;
80536;SDS011;69867;47.074;15.404;2024-03-23T05:21:20;4.07;;;1.98;;
80536;SDS011;69867;47.074;15.404;2024-03-23T05:23:46;5.43;;;2.80;;
80536;SDS011;69867;47.074;15.404;2024-03-23T05:26:11;5.72;;;3.00;;
80536;SDS011;69867;47.074;15.404;2024-03-23T05:28:36;6.32;;;3.03;;
80536;SDS011;69867;47.074;15.404;2024-03-23T05:31:02;6.03;;;3.38;;
80536;SDS011;69867;47.074;15.404;2024-03-23T05:33:27;5.30;;;2.70;;
80536;SDS011;69867;47.074;15.404;2024-03-23T05:35:56;7.18;;;3.97;;
80536;SDS011;69867;47.074;15.404;2024-03-23T05:38:23;9.88;;;4.43;;
80536;SDS011;69867;47.074;15.404;2024-03-23T05:40:58;8.80;;;4.97;;
80536;SDS011;69867;47.074;15.404;2024-03-23T05:43:24;8.48;;;4.75;;
80536;SDS011;69867;47.074;15.404;2024-03-23T05:45:54;9.98;;;4.70;;
80536;SDS011;69867;47.074;15.404;2024-03-23T05:48:23;8.05;;;4.30;;
80536;SDS011;69867;47.074;15.404;2024-03-23T05:50:49;8.23;;;4.00;;
80536;SDS011;69867;47.074;15.404;2024-03-23T05:53:15;9.25;;;4.57;;
80536;SDS011;69867;47.074;15.404;2024-03-23T05:55:41;10.77;;;4.10;;
80536;SDS011;69867;47.074;15.404;2024-03-23T05:58:06;7.20;;;3.80;;
80536;SDS011;69867;47.074;15.404;2024-03-23T06:00:32;7.15;;;3.88;;
80536;SDS011;69867;47.074;15.404;2024-03-23T06:02:57;9.23;;;4.38;;
80536;SDS011;69867;47.074;15.404;2024-03-23T06:05:23;7.35;;;3.97;;
80536;SDS011;69867;47.074;15.404;2024-03-23T06:07:48;8.82;;;4.28;;
80536;SDS011;69867;47.074;15.404;2024-03-23T06:10:13;6.60;;;3.63;;
80536;SDS011;69867;47.074;15.404;2024-03-23T06:12:39;7.38;;;3.95;;
80536;SDS011;69867;47.074;15.404;2024-03-23T06:15:04;12.95;;;6.75;;
80536;SDS011;69867;47.074;15.404;2024-03-23T06:17:30;8.30;;;4.57;;
80536;SDS011;69867;47.074;15.404;2024-03-23T06:19:55;8.85;;;4.47;;
80536;SDS011;69867;47.074;15.404;2024-03-23T06:22:21;8.75;;;4.85;;
80536;SDS011;69867;47.074;15.404;2024-03-23T06:24:46;9.63;;;5.10;;
80536;SDS011;69867;47.074;15.404;2024-03-23T06:27:11;8.68;;;4.60;;
80536;SDS011;69867;47.074;15.404;2024-03-23T06:29:37;9.15;;;4.88;;
80536;SDS011;69867;47.074;15.404;2024-03-23T06:32:02;11.18;;;5.60;;
80536;SDS011;69867;47.074;15.404;2024-03-23T06:34:27;8.40;;;4.45;;
80536;SDS011;69867;47.074;15.404;2024-03-23T06:36:53;8.82;;;4.88;;
80536;SDS011;69867;47.074;15.404;2024-03-23T06:39:18;8.45;;;4.18;;
80536;SDS011;69867;47.074;15.404;2024-03-23T06:41:44;8.90;;;3.97;;
80536;SDS011;69867;47.074;15.404;2024-03-23T06:44:17;8.38;;;4.50;;
80536;SDS011;69867;47.074;15.404;2024-03-23T06:46:43;8.10;;;4.55;;
80536;SDS011;69867;47.074;15.404;2024-03-23T06:49:08;6.55;;;3.80;;
80536;SDS011;69867;47.074;15.404;2024-03-23T06:51:34;5.47;;;4.00;;
80536;SDS011;69867;47.074;15.404;2024-03-23T06:53:59;6.30;;;3.80;;
80536;SDS011;69867;47.074;15.404;2024-03-23T06:56:24;7.88;;;3.90;;
80536;SDS011;69867;47.074;15.404;2024-03-23T06:58:50;7.65;;;4.43;;
80536;SDS011;69867;47.074;15.404;2024-03-23T07:01:15;7.05;;;4.30;;
80536;SDS011;69867;47.074;15.404;2024-03-23T07:03:40;10.30;;;4.30;;
80536;SDS011;69867;47.074;15.404;2024-03-23T07:06:06;9.32;;;4.63;;
80536;SDS011;69867;47.074;15.404;2024-03-23T07:08:31;7.97;;;4.38;;
80536;SDS011;69867;47.074;15.404;2024-03-23T07:10:56;9.98;;;5.40;;
80536;SDS011;69867;47.074;15.404;2024-03-23T07:13:22;8.52;;;4.25;;
80536;SDS011;69867;47.074;15.404;2024-03-23T07:15:53;9.85;;;5.20;;
80536;SDS011;69867;47.074;15.404;2024-03-23T07:18:19;12.95;;;4.97;;
80536;SDS011;69867;47.074;15.404;2024-03-23T07:20:52;8.70;;;4.57;;
80536;SDS011;69867;47.074;15.404;2024-03-23T07:23:18;7.70;;;4.68;;
80536;SDS011;69867;47.074;15.404;2024-03-23T07:25:43;8.90;;;4.88;;
80536;SDS011;69867;47.074;15.404;2024-03-23T07:28:09;10.15;;;4.68;;
80536;SDS011;69867;47.074;15.404;2024-03-23T07:30:34;11.02;;;5.78;;
80536;SDS011;69867;47.074;15.404;2024-03-23T07:32:59;11.57;;;6.22;;
80536;SDS011;69867;47.074;15.404;2024-03-23T07:35:25;11.23;;;5.47;;
80536;SDS011;69867;47.074;15.404;2024-03-23T07:37:50;8.57;;;5.38;;
80536;SDS011;69867;47.074;15.404;2024-03-23T07:40:15;9.07;;;4.72;;
80536;SDS011;69867;47.074;15.404;2024-03-23T07:42:41;8.85;;;4.25;;
80536;SDS011;69867;47.074;15.404;2024-03-23T07:45:06;8.02;;;4.82;;
80536;SDS011;69867;47.074;15.404;2024-03-23T07:47:32;9.75;;;4.78;;
80536;SDS011;69867;47.074;15.404;2024-03-23T07:49:57;7.88;;;4.20;;
80536;SDS011;69867;47.074;15.404;2024-03-23T07:52:22;9.13;;;4.80;;
80536;SDS011;69867;47.074;15.404;2024-03-23T07:54:48;7.47;;;4.10;;
80536;SDS011;69867;47.074;15.404;2024-03-23T07:57:13;7.25;;;3.85;;
80536;SDS011;69867;47.074;15.404;2024-03-23T07:59:38;5.63;;;3.60;;
80536;SDS011;69867;47.074;15.404;2024-03-23T08:02:04;7.68;;;3.83;;
80536;SDS011;69867;47.074;15.404;2024-03-23T08:04:29;6.22;;;3.58;;
80536;SDS011;69867;47.074;15.404;2024-03-23T08:06:55;7.47;;;3.90;;
80536;SDS011;69867;47.074;15.404;2024-03-23T08:09:20;9.05;;;4.88;;
80536;SDS011;69867;47.074;15.404;2024-03-23T08:11:46;8.23;;;4.95;;
80536;SDS011;69867;47.074;15.404;2024-03-23T08:14:11;8.52;;;4.85;;
80536;SDS011;69867;47.074;15.404;2024-03-23T08:16:36;7.53;;;4.43;;
80536;SDS011;69867;47.074;15.404;2024-03-23T08:19:02;7.10;;;4.03;;
80536;SDS011;69867;47.074;15.404;2024-03-23T08:21:27;8.18;;;4.13;;
80536;SDS011;69867;47.074;15.404;2024-03-23T08:23:52;10.13;;;5.43;;
80536;SDS011;69867;47.074;15.404;2024-03-23T08:26:18;7.68;;;4.50;;
80536;SDS011;69867;47.074;15.404;2024-03-23T08:28:43;7.53;;;4.03;;
80536;SDS011;69867;47.074;15.404;2024-03-23T08:31:11;7.13;;;3.80;;
80536;SDS011;69867;47.074;15.404;2024-03-23T08:33:37;7.63;;;4.00;;
80536;SDS011;69867;47.074;15.404;2024-03-23T08:36:07;5.93;;;3.63;;
80536;SDS011;69867;47.074;15.404;2024-03-23T08:38:33;8.82;;;4.25;;
80536;SDS011;69867;47.074;15.404;2024-03-23T08:41:02;7.82;;;4.63;;
80536;SDS011;69867;47.074;15.404;2024-03-23T08:43:38;7.07;;;4.00;;
80536;SDS011;69867;47.074;15.404;2024-03-23T08:48:37;8.10;;;4.30;;
80536;SDS011;69867;47.074;15.404;2024-03-23T08:51:07;9.50;;;4.15;;
80536;SDS011;69867;47.074;15.404;2024-03-23T08:53:34;9.45;;;4.95;;
80536;SDS011;69867;47.074;15.404;2024-03-23T08:56:00;8.18;;;4.78;;
80536;SDS011;69867;47.074;15.404;2024-03-23T08:58:26;6.05;;;3.65;;
80536;SDS011;69867;47.074;15.404;2024-03-23T09:00:53;7.38;;;4.47;;
80536;SDS011;69867;47.074;15.404;2024-03-23T09:03:19;7.72;;;4.10;;
80536;SDS011;69867;47.074;15.404;2024-03-23T09:05:44;7.68;;;4.30;;
80536;SDS011;69867;47.074;15.404;2024-03-23T09:08:10;8.75;;;4.72;;
80536;SDS011;69867;47.074;15.404;2024-03-23T09:10:38;7.78;;;4.38;;
80536;SDS011;69867;47.074;15.404;2024-03-23T09:13:04;9.13;;;4.72;;
80536;SDS011;69867;47.074;15.404;2024-03-23T09:15:29;8.35;;;3.80;;
80536;SDS011;69867;47.074;15.404;2024-03-23T09:17:54;7.38;;;4.05;;
80536;SDS011;69867;47.074;15.404;2024-03-23T09:20:20;10.35;;;4.45;;
80536;SDS011;69867;47.074;15.404;2024-03-23T09:22:47;8.27;;;4.45;;
80536;SDS011;69867;47.074;15.404;2024-03-23T09:25:13;6.82;;;3.90;;
80536;SDS011;69867;47.074;15.404;2024-03-23T09:27:39;7.13;;;3.53;;
80536;SDS011;69867;47.074;15.404;2024-03-23T09:30:04;9.90;;;3.75;;
80536;SDS011;69867;47.074;15.404;2024-03-23T09:32:30;6.20;;;3.25;;
80536;SDS011;69867;47.074;15.404;2024-03-23T09:34:55;6.57;;;3.28;;
80536;SDS011;69867;47.074;15.404;2024-03-23T09:37:21;7.18;;;3.50;;
80536;SDS011;69867;47.074;15.404;2024-03-23T09:39:46;8.35;;;4.20;;
80536;SDS011;69867;47.074;15.404;2024-03-23T09:42:12;7.10;;;3.55;;
80536;SDS011;69867;47.074;15.404;2024-03-23T09:44:37;7.47;;;3.58;;
80536;SDS011;69867;47.074;15.404;2024-03-23T09:47:02;11.90;;;3.55;;
80536;SDS011;69867;47.074;15.404;2024-03-23T09:49:28;9.25;;;4.13;;
80536;SDS011;69867;47.074;15.404;2024-03-23T09:51:54;8.20;;;3.90;;
80536;SDS011;69867;47.074;15.404;2024-03-23T09:54:21;7.65;;;3.78;;
80536;SDS011;69867;47.074;15.404;2024-03-23T09:56:46;5.60;;;3.55;;
80536;SDS011;69867;47.074;15.404;2024-03-23T09:59:11;7.50;;;3.53;;
80536;SDS011;69867;47.074;15.404;2024-03-23T10:01:37;4.97;;;2.70;;
80536;SDS011;69867;47.074;15.404;2024-03-23T10:04:02;6.40;;;2.85;;
80536;SDS011;69867;47.074;15.404;2024-03-23T10:06:28;6.60;;;3.13;;
80536;SDS011;69867;47.074;15.404;2024-03-23T10:08:53;6.47;;;3.30;;
80536;SDS011;69867;47.074;15.404;2024-03-23T10:11:19;5.25;;;3.05;;
80536;SDS011;69867;47.074;15.404;2024-03-23T10:13:44;5.25;;;2.55;;
80536;SDS011;69867;47.074;15.404;2024-03-23T10:16:10;7.53;;;2.85;;
80536;SDS011;69867;47.074;15.404;2024-03-23T10:18:39;6.20;;;2.60;;
80536;SDS011;69867;47.074;15.404;2024-03-23T10:23:30;4.13;;;2.10;;
80536;SDS011;69867;47.074;15.404;2024-03-23T10:25:55;3.75;;;2.33;;
80536;SDS011;69867;47.074;15.404;2024-03-23T10:28:37;4.70;;;2.40;;
80536;SDS011;69867;47.074;15.404;2024-03-23T10:31:15;3.60;;;1.95;;
80536;SDS011;69867;47.074;15.404;2024-03-23T10:33:44;4.00;;;2.00;;
80536;SDS011;69867;47.074;15.404;2024-03-23T10:36:13;4.55;;;2.20;;
80536;SDS011;69867;47.074;15.404;2024-03-23T10:38:42;3.97;;;2.38;;
80536;SDS011;69867;47.074;15.404;2024-03-23T10:41:09;5.13;;;2.40;;
80536;SDS011;69867;47.074;15.404;2024-03-23T10:43:34;3.95;;;2.13;;
80536;SDS011;69867;47.074;15.404;2024-03-23T10:46:01;5.20;;;2.58;;
80536;SDS011;69867;47.074;15.404;2024-03-23T10:48:27;6.00;;;2.63;;
80536;SDS011;69867;47.074;15.404;2024-03-23T10:50:52;5.80;;;2.75;;
80536;SDS011;69867;47.074;15.404;2024-03-23T10:53:18;5.40;;;2.60;;
80536;SDS011;69867;47.074;15.404;2024-03-23T10:55:46;4.80;;;2.28;;
80536;SDS011;69867;47.074;15.404;2024-03-23T10:58:11;5.53;;;2.97;;
80536;SDS011;69867;47.074;15.404;2024-03-23T11:00:37;5.32;;;2.63;;
80536;SDS011;69867;47.074;15.404;2024-03-23T11:05:58;5.35;;;2.50;;
80536;SDS011;69867;47.074;15.404;2024-03-23T11:08:31;4.32;;;2.20;;
80536;SDS011;69867;47.074;15.404;2024-03-23T11:11:18;4.25;;;2.33;;
80536;SDS011;69867;47.074;15.404;2024-03-23T11:13:44;4.32;;;2.20;;
80536;SDS011;69867;47.074;15.404;2024-03-23T11:16:15;6.22;;;2.58;;
80536;SDS011;69867;47.074;15.404;2024-03-23T11:18:42;5.65;;;2.30;;
80536;SDS011;69867;47.074;15.404;2024-03-23T11:21:08;4.18;;;2.30;;
80536;SDS011;69867;47.074;15.404;2024-03-23T11:23:33;4.60;;;2.17;;
80536;SDS011;69867;47.074;15.404;2024-03-23T11:25:59;5.25;;;2.25;;
80536;SDS011;69867;47.074;15.404;2024-03-23T11:28:24;5.38;;;2.22;;
80536;SDS011;69867;47.074;15.404;2024-03-23T11:30:49;3.92;;;2.05;;
80536;SDS011;69867;47.074;15.404;2024-03-23T11:33:15;5.07;;;2.88;;
80536;SDS011;69867;47.074;15.404;2024-03-23T11:35:40;3.42;;;2.28;;
80536;SDS011;69867;47.074;15.404;2024-03-23T11:38:10;4.28;;;2.22;;
80536;SDS011;69867;47.074;15.404;2024-03-23T11:43:05;5.05;;;2.60;;
80536;SDS011;69867;47.074;15.404;2024-03-23T11:45:36;6.47;;;2.78;;
80536;SDS011;69867;47.074;15.404;2024-03-23T11:48:11;6.32;;;3.17;;
80536;SDS011;69867;47.074;15.404;2024-03-23T11:50:38;3.97;;;2.50;;
80536;SDS011;69867;47.074;15.404;2024-03-23T11:53:09;5.78;;;2.50;;
80536;SDS011;69867;47.074;15.404;2024-03-23T11:58:15;4.95;;;3.03;;
80536;SDS011;69867;47.074;15.404;2024-03-23T12:00:41;6.70;;;3.60;;
80536;SDS011;69867;47.074;15.404;2024-03-23T12:03:08;5.53;;;2.58;;
80536;SDS011;69867;47.074;15.404;2024-03-23T12:05:33;5.88;;;3.05;;
80536;SDS011;69867;47.074;15.404;2024-03-23T12:08:18;5.18;;;2.90;;
80536;SDS011;69867;47.074;15.404;2024-03-23T12:10:46;4.68;;;2.50;;
80536;SDS011;69867;47.074;15.404;2024-03-23T12:13:20;5.43;;;2.45;;
80536;SDS011;69867;47.074;15.404;2024-03-23T12:15:46;5.03;;;2.70;;
80536;SDS011;69867;47.074;15.404;2024-03-23T12:18:14;6.10;;;2.72;;
80536;SDS011;69867;47.074;15.404;2024-03-23T12:20:40;7.25;;;3.00;;
80536;SDS011;69867;47.074;15.404;2024-03-23T12:23:06;4.93;;;3.10;;
80536;SDS011;69867;47.074;15.404;2024-03-23T12:25:35;4.85;;;3.00;;
80536;SDS011;69867;47.074;15.404;2024-03-23T12:28:01;5.78;;;2.88;;
80536;SDS011;69867;47.074;15.404;2024-03-23T12:30:27;6.90;;;3.08;;
80536;SDS011;69867;47.074;15.404;2024-03-23T12:32:52;6.22;;;3.10;;
80536;SDS011;69867;47.074;15.404;2024-03-23T12:35:17;6.53;;;2.80;;
80536;SDS011;69867;47.074;15.404;2024-03-23T12:37:43;5.80;;;2.92;;
80536;SDS011;69867;47.074;15.404;2024-03-23T12:40:09;4.72;;;2.65;;
80536;SDS011;69867;47.074;15.404;2024-03-23T12:42:34;5.43;;;3.13;;
80536;SDS011;69867;47.074;15.404;2024-03-23T12:45:00;6.30;;;4.28;;
80536;SDS011;69867;47.074;15.404;2024-03-23T12:47:26;5.85;;;2.83;;
80536;SDS011;69867;47.074;15.404;2024-03-23T12:49:51;6.03;;;2.92;;
80536;SDS011;69867;47.074;15.404;2024-03-23T12:52:16;5.32;;;2.70;;
80536;SDS011;69867;47.074;15.404;2024-03-23T12:54:42;4.75;;;2.58;;
80536;SDS011;69867;47.074;15.404;2024-03-23T12:57:07;5.85;;;2.38;;
80536;SDS011;69867;47.074;15.404;2024-03-23T12:59:32;4.78;;;2.53;;
80536;SDS011;69867;47.074;15.404;2024-03-23T13:01:58;5.07;;;2.30;;
80536;SDS011;69867;47.074;15.404;2024-03-23T13:04:23;4.57;;;2.20;;
80536;SDS011;69867;47.074;15.404;2024-03-23T13:06:48;4.97;;;2.50;;
80536;SDS011;69867;47.074;15.404;2024-03-23T13:09:14;5.90;;;2.55;;
80536;SDS011;69867;47.074;15.404;2024-03-23T13:11:39;4.53;;;2.30;;
80536;SDS011;69867;47.074;15.404;2024-03-23T13:14:04;5.13;;;2.40;;
80536;SDS011;69867;47.074;15.404;2024-03-23T13:16:30;3.88;;;2.03;;
80536;SDS011;69867;47.074;15.404;2024-03-23T13:18:55;3.83;;;1.92;;
80536;SDS011;69867;47.074;15.404;2024-03-23T13:21:20;4.25;;;1.85;;
80536;SDS011;69867;47.074;15.404;2024-03-23T13:23:46;3.13;;;2.03;;
80536;SDS011;69867;47.074;15.404;2024-03-23T13:26:13;5.03;;;2.35;;
80536;SDS011;69867;47.074;15.404;2024-03-23T13:28:39;3.50;;;1.70;;
80536;SDS011;69867;47.074;15.404;2024-03-23T13:31:04;3.83;;;1.70;;
80536;SDS011;69867;47.074;15.404;2024-03-23T13:33:30;5.70;;;2.20;;
80536;SDS011;69867;47.074;15.404;2024-03-23T13:35:55;4.88;;;2.20;;
80536;SDS011;69867;47.074;15.404;2024-03-23T13:38:21;4.28;;;2.10;;
80536;SDS011;69867;47.074;15.404;2024-03-23T13:40:50;4.30;;;2.08;;
80536;SDS011;69867;47.074;15.404;2024-03-23T13:43:19;6.57;;;2.28;;
80536;SDS011;69867;47.074;15.404;2024-03-23T13:45:46;3.90;;;2.10;;
80536;SDS011;69867;47.074;15.404;2024-03-23T13:48:13;3.78;;;1.95;;
80536;SDS011;69867;47.074;15.404;2024-03-23T13:50:38;4.30;;;2.28;;
80536;SDS011;69867;47.074;15.404;2024-03-23T13:53:03;4.22;;;2.00;;
80536;SDS011;69867;47.074;15.404;2024-03-23T13:55:29;5.20;;;2.45;;
80536;SDS011;69867;47.074;15.404;2024-03-23T13:57:54;6.00;;;2.40;;
80536;SDS011;69867;47.074;15.404;2024-03-23T14:00:19;4.68;;;1.95;;
80536;SDS011;69867;47.074;15.404;2024-03-23T14:02:45;6.38;;;2.70;;
80536;SDS011;69867;47.074;15.404;2024-03-23T14:05:10;5.70;;;2.70;;
80536;SDS011;69867;47.074;15.404;2024-03-23T14:07:36;4.72;;;2.83;;
80536;SDS011;69867;47.074;15.404;2024-03-23T14:10:04;4.65;;;2.55;;
80536;SDS011;69867;47.074;15.404;2024-03-23T14:12:30;3.80;;;2.40;;
80536;SDS011;69867;47.074;15.404;2024-03-23T14:14:55;4.85;;;2.45;;
80536;SDS011;69867;47.074;15.404;2024-03-23T14:17:20;4.85;;;2.40;;
80536;SDS011;69867;47.074;15.404;2024-03-23T14:19:46;5.65;;;2.75;;
80536;SDS011;69867;47.074;15.404;2024-03-23T14:22:11;4.38;;;2.25;;
80536;SDS011;69867;47.074;15.404;2024-03-23T14:24:36;4.95;;;2.40;;
80536;SDS011;69867;47.074;15.404;2024-03-23T14:27:02;5.05;;;2.58;;
80536;SDS011;69867;47.074;15.404;2024-03-23T14:29:27;4.72;;;2.35;;
80536;SDS011;69867;47.074;15.404;2024-03-23T14:31:53;3.92;;;2.13;;
80536;SDS011;69867;47.074;15.404;2024-03-23T14:34:18;5.60;;;2.30;;
80536;SDS011;69867;47.074;15.404;2024-03-23T14:36:43;3.70;;;1.73;;
80536;SDS011;69867;47.074;15.404;2024-03-23T14:39:09;6.18;;;2.75;;
80536;SDS011;69867;47.074;15.404;2024-03-23T14:41:34;4.30;;;2.20;;
80536;SDS011;69867;47.074;15.404;2024-03-23T14:43:59;4.63;;;2.47;;
80536;SDS011;69867;47.074;15.404;2024-03-23T14:46:25;5.28;;;2.20;;
80536;SDS011;69867;47.074;15.404;2024-03-23T14:48:50;5.32;;;2.60;;
80536;SDS011;69867;47.074;15.404;2024-03-23T14:51:15;4.70;;;2.35;;
80536;SDS011;69867;47.074;15.404;2024-03-23T14:53:42;4.05;;;2.38;;
80536;SDS011;69867;47.074;15.404;2024-03-23T14:56:10;4.28;;;2.40;;
80536;SDS011;69867;47.074;15.404;2024-03-23T14:58:36;4.03;;;2.40;;
80536;SDS011;69867;47.074;15.404;2024-03-23T15:03:27;4.82;;;2.00;;
80536;SDS011;69867;47.074;15.404;2024-03-23T15:05:53;6.30;;;2.65;;
80536;SDS011;69867;47.074;15.404;2024-03-23T15:08:22;4.55;;;2.67;;
80536;SDS011;69867;47.074;15.404;2024-03-23T15:10:48;6.25;;;1.95;;
80536;SDS011;69867;47.074;15.404;2024-03-23T15:13:13;4.55;;;0.90;;
80536;SDS011;69867;47.074;15.404;2024-03-23T15:15:39;4.03;;;1.20;;
80536;SDS011;69867;47.074;15.404;2024-03-23T15:18:05;4.10;;;0.80;;
80536;SDS011;69867;47.074;15.404;2024-03-23T15:20:31;4.68;;;0.70;;
80536;SDS011;69867;47.074;15.404;2024-03-23T15:22:56;5.35;;;0.57;;
80536;SDS011;69867;47.074;15.404;2024-03-23T15:25:22;3.30;;;0.35;;
80536;SDS011;69867;47.074;15.404;2024-03-23T15:27:47;3.05;;;0.88;;
80536;SDS011;69867;47.074;15.404;2024-03-23T15:30:12;9.65;;;0.40;;
80536;SDS011;69867;47.074;15.404;2024-03-23T15:32:38;3.75;;;0.20;;
80536;SDS011;69867;47.074;15.404;2024-03-23T15:35:04;0.98;;;0.40;;